Terminal Aerodrome Forecast
Issued by NWS

Home | Current Version | Previous Version | Text Only | Print | Product List | Glossary Off
Versions: 1 2 3 4 5 6 7 8 9 10 11 12 13 14 15 16 17 18 19 20 21 22 23 24 25 26 27 28 29 30

000
FTUS43 KLOT 260524
TAFGYY
TAF
KGYY 260524Z 2606/2706 VRB03KT 4SM BR SCT100 SCT200
     FM260800 VRB03KT P6SM SCT100 BKN200
      TEMPO 2608/2612 4SM BR
     FM261400 03007KT P6SM BKN180=

USA.gov is the U.S. government's official web portal to all federal, state and local government web resources and services.